sensor_id;sensor_type;location;lat;lon;timestamp;temperature;humidity
8820;DHT22;4446;50.876;4.736;2023-02-15T00:01:06;1.10;99.90
8820;DHT22;4446;50.876;4.736;2023-02-15T00:03:34;1.00;99.90
8820;DHT22;4446;50.876;4.736;2023-02-15T00:06:01;1.00;99.90
8820;DHT22;4446;50.876;4.736;2023-02-15T00:08:28;1.00;99.90
8820;DHT22;4446;50.876;4.736;2023-02-15T00:11:03;0.90;99.90
8820;DHT22;4446;50.876;4.736;2023-02-15T00:13:32;0.90;99.90
8820;DHT22;4446;50.876;4.736;2023-02-15T00:16:02;0.90;99.90
8820;DHT22;4446;50.876;4.736;2023-02-15T00:18:29;0.80;99.90
8820;DHT22;4446;50.876;4.736;2023-02-15T00:20:56;0.80;99.90
8820;DHT22;4446;50.876;4.736;2023-02-15T00:23:23;0.70;99.90
8820;DHT22;4446;50.876;4.736;2023-02-15T00:25:50;0.70;99.90
8820;DHT22;4446;50.876;4.736;2023-02-15T00:28:17;0.70;99.90
8820;DHT22;4446;50.876;4.736;2023-02-15T00:30:45;0.70;99.90
8820;DHT22;4446;50.876;4.736;2023-02-15T00:33:12;0.60;99.90
8820;DHT22;4446;50.876;4.736;2023-02-15T00:35:39;0.60;99.90
8820;DHT22;4446;50.876;4.736;2023-02-15T00:38:06;0.60;99.90
8820;DHT22;4446;50.876;4.736;2023-02-15T00:40:33;0.60;99.90
8820;DHT22;4446;50.876;4.736;2023-02-15T00:42:59;0.60;99.90
8820;DHT22;4446;50.876;4.736;2023-02-15T00:45:28;0.50;99.90
8820;DHT22;4446;50.876;4.736;2023-02-15T00:47:56;0.50;99.90
8820;DHT22;4446;50.876;4.736;2023-02-15T00:50:23;0.50;99.90
8820;DHT22;4446;50.876;4.736;2023-02-15T00:52:50;0.50;99.90
8820;DHT22;4446;50.876;4.736;2023-02-15T00:55:17;0.50;99.90
8820;DHT22;4446;50.876;4.736;2023-02-15T00:57:44;0.40;99.90
8820;DHT22;4446;50.876;4.736;2023-02-15T01:00:12;0.40;99.90
8820;DHT22;4446;50.876;4.736;2023-02-15T01:02:39;0.40;99.90
8820;DHT22;4446;50.876;4.736;2023-02-15T01:05:08;0.40;99.90
8820;DHT22;4446;50.876;4.736;2023-02-15T01:07:35;0.40;99.90
8820;DHT22;4446;50.876;4.736;2023-02-15T01:10:02;0.40;99.90
8820;DHT22;4446;50.876;4.736;2023-02-15T01:12:29;0.30;99.90
8820;DHT22;4446;50.876;4.736;2023-02-15T01:14:56;0.30;99.90
8820;DHT22;4446;50.876;4.736;2023-02-15T01:17:22;0.40;99.90
8820;DHT22;4446;50.876;4.736;2023-02-15T01:19:49;0.40;99.90
8820;DHT22;4446;50.876;4.736;2023-02-15T01:22:18;0.50;99.90
8820;DHT22;4446;50.876;4.736;2023-02-15T01:24:48;0.50;99.90
8820;DHT22;4446;50.876;4.736;2023-02-15T01:27:15;0.50;99.90
8820;DHT22;4446;50.876;4.736;2023-02-15T01:29:42;0.60;99.90
8820;DHT22;4446;50.876;4.736;2023-02-15T01:32:09;0.60;99.90
8820;DHT22;4446;50.876;4.736;2023-02-15T01:34:36;0.60;99.90
8820;DHT22;4446;50.876;4.736;2023-02-15T01:37:03;0.70;99.90
8820;DHT22;4446;50.876;4.736;2023-02-15T01:39:31;0.80;99.90
8820;DHT22;4446;50.876;4.736;2023-02-15T01:41:58;1.00;99.90
8820;DHT22;4446;50.876;4.736;2023-02-15T01:44:50;1.20;99.90
8820;DHT22;4446;50.876;4.736;2023-02-15T01:47:20;1.40;99.90
8820;DHT22;4446;50.876;4.736;2023-02-15T01:49:54;1.40;99.90
8820;DHT22;4446;50.876;4.736;2023-02-15T01:52:25;1.50;99.90
8820;DHT22;4446;50.876;4.736;2023-02-15T01:54:53;1.50;99.90
8820;DHT22;4446;50.876;4.736;2023-02-15T01:57:23;1.50;99.90
8820;DHT22;4446;50.876;4.736;2023-02-15T01:59:53;1.50;99.90
8820;DHT22;4446;50.876;4.736;2023-02-15T02:02:22;1.50;99.90
8820;DHT22;4446;50.876;4.736;2023-02-15T02:04:51;1.50;99.90
8820;DHT22;4446;50.876;4.736;2023-02-15T02:07:20;1.50;99.90
8820;DHT22;4446;50.876;4.736;2023-02-15T02:09:48;1.50;99.90
8820;DHT22;4446;50.876;4.736;2023-02-15T02:12:17;1.50;99.90
8820;DHT22;4446;50.876;4.736;2023-02-15T02:14:45;1.50;99.90
8820;DHT22;4446;50.876;4.736;2023-02-15T02:17:16;1.60;99.90
8820;DHT22;4446;50.876;4.736;2023-02-15T02:20:03;1.50;99.90
8820;DHT22;4446;50.876;4.736;2023-02-15T02:23:05;1.40;99.90
8820;DHT22;4446;50.876;4.736;2023-02-15T02:25:55;1.30;99.90
8820;DHT22;4446;50.876;4.736;2023-02-15T02:28:40;1.10;99.90
8820;DHT22;4446;50.876;4.736;2023-02-15T02:31:54;1.10;99.90
8820;DHT22;4446;50.876;4.736;2023-02-15T02:34:29;1.00;99.90
8820;DHT22;4446;50.876;4.736;2023-02-15T02:37:03;1.00;99.90
8820;DHT22;4446;50.876;4.736;2023-02-15T02:39:37;0.90;99.90
8820;DHT22;4446;50.876;4.736;2023-02-15T02:42:11;0.70;99.90
8820;DHT22;4446;50.876;4.736;2023-02-15T02:44:42;0.60;99.90
8820;DHT22;4446;50.876;4.736;2023-02-15T02:47:13;0.50;99.90
8820;DHT22;4446;50.876;4.736;2023-02-15T02:49:43;0.40;99.90
8820;DHT22;4446;50.876;4.736;2023-02-15T02:52:34;0.30;99.90
8820;DHT22;4446;50.876;4.736;2023-02-15T02:55:01;0.20;99.90
8820;DHT22;4446;50.876;4.736;2023-02-15T02:57:30;0.10;99.90
8820;DHT22;4446;50.876;4.736;2023-02-15T03:00:00;0.10;99.90
8820;DHT22;4446;50.876;4.736;2023-02-15T03:02:32;0.10;99.90
8820;DHT22;4446;50.876;4.736;2023-02-15T03:05:07;0.10;99.90
8820;DHT22;4446;50.876;4.736;2023-02-15T03:07:36;0.00;99.90
8820;DHT22;4446;50.876;4.736;2023-02-15T03:10:05;0.10;99.90
8820;DHT22;4446;50.876;4.736;2023-02-15T03:12:36;0.10;99.90
8820;DHT22;4446;50.876;4.736;2023-02-15T03:15:06;0.00;99.90
8820;DHT22;4446;50.876;4.736;2023-02-15T03:17:37;0.10;99.90
8820;DHT22;4446;50.876;4.736;2023-02-15T03:20:11;0.00;99.90
8820;DHT22;4446;50.876;4.736;2023-02-15T03:22:43;0.10;99.90
8820;DHT22;4446;50.876;4.736;2023-02-15T03:25:16;0.00;99.90
8820;DHT22;4446;50.876;4.736;2023-02-15T03:27:45;0.00;99.90
8820;DHT22;4446;50.876;4.736;2023-02-15T03:30:15;0.00;99.90
8820;DHT22;4446;50.876;4.736;2023-02-15T03:32:45;0.00;99.90
8820;DHT22;4446;50.876;4.736;2023-02-15T03:35:15;-0.10;99.90
8820;DHT22;4446;50.876;4.736;2023-02-15T03:37:47;-0.10;99.90
8820;DHT22;4446;50.876;4.736;2023-02-15T03:40:19;-0.10;99.90
8820;DHT22;4446;50.876;4.736;2023-02-15T03:43:11;-0.10;99.90
8820;DHT22;4446;50.876;4.736;2023-02-15T03:45:40;-0.10;99.90
8820;DHT22;4446;50.876;4.736;2023-02-15T03:48:22;-0.20;99.90
8820;DHT22;4446;50.876;4.736;2023-02-15T03:50:54;-0.20;99.90
8820;DHT22;4446;50.876;4.736;2023-02-15T03:53:40;-0.30;99.90
8820;DHT22;4446;50.876;4.736;2023-02-15T03:56:08;-0.30;99.90
8820;DHT22;4446;50.876;4.736;2023-02-15T03:58:34;-0.30;99.90
8820;DHT22;4446;50.876;4.736;2023-02-15T04:01:23;-0.30;99.90
8820;DHT22;4446;50.876;4.736;2023-02-15T04:04:16;-0.40;99.90
8820;DHT22;4446;50.876;4.736;2023-02-15T04:06:46;-0.30;99.90
8820;DHT22;4446;50.876;4.736;2023-02-15T04:09:13;-0.30;99.90
8820;DHT22;4446;50.876;4.736;2023-02-15T04:11:57;-0.30;99.90
8820;DHT22;4446;50.876;4.736;2023-02-15T04:14:24;-0.30;99.90
8820;DHT22;4446;50.876;4.736;2023-02-15T04:17:09;-0.40;99.90
8820;DHT22;4446;50.876;4.736;2023-02-15T04:19:36;-0.40;99.90
8820;DHT22;4446;50.876;4.736;2023-02-15T04:22:22;-0.40;99.90
8820;DHT22;4446;50.876;4.736;2023-02-15T04:25:06;-0.40;99.90
8820;DHT22;4446;50.876;4.736;2023-02-15T04:27:36;-0.50;99.90
8820;DHT22;4446;50.876;4.736;2023-02-15T04:30:04;-0.50;99.90
8820;DHT22;4446;50.876;4.736;2023-02-15T04:32:32;-0.50;99.90
8820;DHT22;4446;50.876;4.736;2023-02-15T04:34:59;-0.50;99.90
8820;DHT22;4446;50.876;4.736;2023-02-15T04:37:27;-0.50;99.90
8820;DHT22;4446;50.876;4.736;2023-02-15T04:39:54;-0.50;99.90
8820;DHT22;4446;50.876;4.736;2023-02-15T04:42:24;-0.50;99.90
8820;DHT22;4446;50.876;4.736;2023-02-15T04:44:51;-0.50;99.90
8820;DHT22;4446;50.876;4.736;2023-02-15T04:47:18;-0.60;99.90
8820;DHT22;4446;50.876;4.736;2023-02-15T04:49:45;-0.50;99.90
8820;DHT22;4446;50.876;4.736;2023-02-15T04:52:12;-0.60;99.90
8820;DHT22;4446;50.876;4.736;2023-02-15T04:54:40;-0.60;99.90
8820;DHT22;4446;50.876;4.736;2023-02-15T04:57:07;-0.60;99.90
8820;DHT22;4446;50.876;4.736;2023-02-15T04:59:34;-0.60;99.90
8820;DHT22;4446;50.876;4.736;2023-02-15T05:02:01;-0.60;99.90
8820;DHT22;4446;50.876;4.736;2023-02-15T05:04:28;-0.50;99.90
8820;DHT22;4446;50.876;4.736;2023-02-15T05:06:55;-0.60;99.90
8820;DHT22;4446;50.876;4.736;2023-02-15T05:09:22;-0.60;99.90
8820;DHT22;4446;50.876;4.736;2023-02-15T05:11:50;-0.50;99.90
8820;DHT22;4446;50.876;4.736;2023-02-15T05:14:17;-0.60;99.90
8820;DHT22;4446;50.876;4.736;2023-02-15T05:16:44;-0.50;99.90
8820;DHT22;4446;50.876;4.736;2023-02-15T05:19:11;-0.50;99.90
8820;DHT22;4446;50.876;4.736;2023-02-15T05:21:38;-0.50;99.90
8820;DHT22;4446;50.876;4.736;2023-02-15T05:24:05;-0.50;99.90
8820;DHT22;4446;50.876;4.736;2023-02-15T05:26:54;-0.50;99.90
8820;DHT22;4446;50.876;4.736;2023-02-15T05:29:38;-0.50;99.90
8820;DHT22;4446;50.876;4.736;2023-02-15T05:32:05;-0.50;99.90
8820;DHT22;4446;50.876;4.736;2023-02-15T05:34:32;-0.60;99.90
8820;DHT22;4446;50.876;4.736;2023-02-15T05:37:01;-0.60;99.90
8820;DHT22;4446;50.876;4.736;2023-02-15T05:39:28;-0.60;99.90
8820;DHT22;4446;50.876;4.736;2023-02-15T05:41:58;-0.60;99.90
8820;DHT22;4446;50.876;4.736;2023-02-15T05:44:25;-0.60;99.90
8820;DHT22;4446;50.876;4.736;2023-02-15T05:46:52;-0.60;99.90
8820;DHT22;4446;50.876;4.736;2023-02-15T05:49:19;-0.60;99.90
8820;DHT22;4446;50.876;4.736;2023-02-15T05:51:46;-0.60;99.90
8820;DHT22;4446;50.876;4.736;2023-02-15T05:54:13;-0.60;99.90
8820;DHT22;4446;50.876;4.736;2023-02-15T05:56:40;-0.50;99.90
8820;DHT22;4446;50.876;4.736;2023-02-15T05:59:08;-0.60;99.90
8820;DHT22;4446;50.876;4.736;2023-02-15T06:01:35;-0.60;99.90
8820;DHT22;4446;50.876;4.736;2023-02-15T06:04:02;-0.60;99.90
8820;DHT22;4446;50.876;4.736;2023-02-15T06:06:29;-0.60;99.90
8820;DHT22;4446;50.876;4.736;2023-02-15T06:08:56;-0.60;99.90
8820;DHT22;4446;50.876;4.736;2023-02-15T06:11:23;-0.70;99.90
8820;DHT22;4446;50.876;4.736;2023-02-15T06:13:50;-0.60;99.90
8820;DHT22;4446;50.876;4.736;2023-02-15T06:16:18;-0.70;99.90
8820;DHT22;4446;50.876;4.736;2023-02-15T06:18:45;-0.70;99.90
8820;DHT22;4446;50.876;4.736;2023-02-15T06:21:12;-0.70;99.90
8820;DHT22;4446;50.876;4.736;2023-02-15T06:23:39;-0.80;99.90
8820;DHT22;4446;50.876;4.736;2023-02-15T06:26:06;-0.80;99.90
8820;DHT22;4446;50.876;4.736;2023-02-15T06:28:33;-0.80;99.90
8820;DHT22;4446;50.876;4.736;2023-02-15T06:31:00;-0.70;99.90
8820;DHT22;4446;50.876;4.736;2023-02-15T06:33:28;-0.70;99.90
8820;DHT22;4446;50.876;4.736;2023-02-15T06:35:56;-0.70;99.90
8820;DHT22;4446;50.876;4.736;2023-02-15T06:38:23;-0.70;99.90
8820;DHT22;4446;50.876;4.736;2023-02-15T06:40:50;-0.70;99.90
8820;DHT22;4446;50.876;4.736;2023-02-15T06:43:17;-0.70;99.90
8820;DHT22;4446;50.876;4.736;2023-02-15T06:45:44;-0.60;99.90
8820;DHT22;4446;50.876;4.736;2023-02-15T06:48:11;-0.60;99.90
8820;DHT22;4446;50.876;4.736;2023-02-15T06:50:40;-0.60;99.90
8820;DHT22;4446;50.876;4.736;2023-02-15T06:53:07;-0.60;99.90
8820;DHT22;4446;50.876;4.736;2023-02-15T06:55:33;-0.70;99.90
8820;DHT22;4446;50.876;4.736;2023-02-15T06:58:00;-0.60;99.90
8820;DHT22;4446;50.876;4.736;2023-02-15T07:00:27;-0.70;99.90
8820;DHT22;4446;50.876;4.736;2023-02-15T07:02:55;-0.70;99.90
8820;DHT22;4446;50.876;4.736;2023-02-15T07:05:23;-0.70;99.90
8820;DHT22;4446;50.876;4.736;2023-02-15T07:07:51;-0.70;99.90
8820;DHT22;4446;50.876;4.736;2023-02-15T07:10:18;-0.70;99.90
8820;DHT22;4446;50.876;4.736;2023-02-15T07:12:45;-0.70;99.90
8820;DHT22;4446;50.876;4.736;2023-02-15T07:15:13;-0.70;99.90
8820;DHT22;4446;50.876;4.736;2023-02-15T07:17:40;-0.70;99.90
8820;DHT22;4446;50.876;4.736;2023-02-15T07:20:09;-0.60;99.90
8820;DHT22;4446;50.876;4.736;2023-02-15T07:22:37;-0.60;99.90
8820;DHT22;4446;50.876;4.736;2023-02-15T07:25:07;-0.50;99.90
8820;DHT22;4446;50.876;4.736;2023-02-15T07:27:34;-0.50;99.90
8820;DHT22;4446;50.876;4.736;2023-02-15T07:30:02;-0.40;99.90
8820;DHT22;4446;50.876;4.736;2023-02-15T07:32:30;-0.30;99.90
8820;DHT22;4446;50.876;4.736;2023-02-15T07:34:58;-0.20;99.90
8820;DHT22;4446;50.876;4.736;2023-02-15T07:37:26;-0.20;99.90
8820;DHT22;4446;50.876;4.736;2023-02-15T07:39:53;-0.10;99.90
8820;DHT22;4446;50.876;4.736;2023-02-15T07:42:21;0.00;99.90
8820;DHT22;4446;50.876;4.736;2023-02-15T07:44:48;0.00;99.90
8820;DHT22;4446;50.876;4.736;2023-02-15T07:47:15;0.00;99.90
8820;DHT22;4446;50.876;4.736;2023-02-15T07:49:42;0.10;99.90
8820;DHT22;4446;50.876;4.736;2023-02-15T07:52:09;0.20;99.90
8820;DHT22;4446;50.876;4.736;2023-02-15T07:54:36;0.20;99.90
8820;DHT22;4446;50.876;4.736;2023-02-15T07:57:03;0.30;99.90
8820;DHT22;4446;50.876;4.736;2023-02-15T07:59:31;0.50;99.90
8820;DHT22;4446;50.876;4.736;2023-02-15T08:01:58;0.70;99.90
8820;DHT22;4446;50.876;4.736;2023-02-15T08:04:25;0.90;99.90
8820;DHT22;4446;50.876;4.736;2023-02-15T08:06:52;1.10;99.90
8820;DHT22;4446;50.876;4.736;2023-02-15T08:09:20;1.30;99.90
8820;DHT22;4446;50.876;4.736;2023-02-15T08:11:47;1.50;99.90
8820;DHT22;4446;50.876;4.736;2023-02-15T08:14:15;1.60;99.90
8820;DHT22;4446;50.876;4.736;2023-02-15T08:16:45;1.70;99.90
8820;DHT22;4446;50.876;4.736;2023-02-15T08:19:16;1.80;99.90
8820;DHT22;4446;50.876;4.736;2023-02-15T08:21:46;2.00;99.90
8820;DHT22;4446;50.876;4.736;2023-02-15T08:24:14;2.00;99.90
8820;DHT22;4446;50.876;4.736;2023-02-15T08:26:42;2.10;99.90
8820;DHT22;4446;50.876;4.736;2023-02-15T08:29:10;2.20;99.90
8820;DHT22;4446;50.876;4.736;2023-02-15T08:31:37;2.10;99.90
8820;DHT22;4446;50.876;4.736;2023-02-15T08:34:08;2.30;99.90
8820;DHT22;4446;50.876;4.736;2023-02-15T08:36:36;2.40;99.90
8820;DHT22;4446;50.876;4.736;2023-02-15T08:39:04;2.60;99.90
8820;DHT22;4446;50.876;4.736;2023-02-15T08:41:33;2.70;99.90
8820;DHT22;4446;50.876;4.736;2023-02-15T08:44:02;2.80;99.90
8820;DHT22;4446;50.876;4.736;2023-02-15T08:46:31;2.90;99.90
8820;DHT22;4446;50.876;4.736;2023-02-15T08:48:59;3.10;99.90
8820;DHT22;4446;50.876;4.736;2023-02-15T08:51:29;3.20;99.90
8820;DHT22;4446;50.876;4.736;2023-02-15T08:53:59;3.30;99.90
8820;DHT22;4446;50.876;4.736;2023-02-15T08:56:27;3.40;99.90
8820;DHT22;4446;50.876;4.736;2023-02-15T08:58:56;3.60;99.90
8820;DHT22;4446;50.876;4.736;2023-02-15T09:01:25;3.70;99.90
8820;DHT22;4446;50.876;4.736;2023-02-15T09:03:56;3.90;99.90
8820;DHT22;4446;50.876;4.736;2023-02-15T09:06:24;4.00;99.90
8820;DHT22;4446;50.876;4.736;2023-02-15T09:08:53;4.10;99.90
8820;DHT22;4446;50.876;4.736;2023-02-15T09:11:22;4.20;99.90
8820;DHT22;4446;50.876;4.736;2023-02-15T09:13:51;4.40;99.90
8820;DHT22;4446;50.876;4.736;2023-02-15T09:16:19;4.50;99.90
8820;DHT22;4446;50.876;4.736;2023-02-15T09:18:47;4.60;99.90
8820;DHT22;4446;50.876;4.736;2023-02-15T09:21:16;4.80;99.90
8820;DHT22;4446;50.876;4.736;2023-02-15T09:23:45;4.80;99.90
8820;DHT22;4446;50.876;4.736;2023-02-15T09:26:14;4.90;99.90
8820;DHT22;4446;50.876;4.736;2023-02-15T09:28:41;5.10;99.90
8820;DHT22;4446;50.876;4.736;2023-02-15T09:31:10;5.20;99.90
8820;DHT22;4446;50.876;4.736;2023-02-15T09:33:38;5.30;99.90
8820;DHT22;4446;50.876;4.736;2023-02-15T09:36:13;5.40;99.90
8820;DHT22;4446;50.876;4.736;2023-02-15T09:38:40;5.50;99.90
8820;DHT22;4446;50.876;4.736;2023-02-15T09:41:20;5.50;99.90
8820;DHT22;4446;50.876;4.736;2023-02-15T09:43:57;5.70;99.90
8820;DHT22;4446;50.876;4.736;2023-02-15T09:46:37;5.80;99.90
8820;DHT22;4446;50.876;4.736;2023-02-15T09:49:16;5.80;99.90
8820;DHT22;4446;50.876;4.736;2023-02-15T09:52:02;6.00;99.90
8820;DHT22;4446;50.876;4.736;2023-02-15T09:54:48;6.20;99.90
8820;DHT22;4446;50.876;4.736;2023-02-15T09:57:23;6.30;99.90
8820;DHT22;4446;50.876;4.736;2023-02-15T09:59:58;6.40;99.90
8820;DHT22;4446;50.876;4.736;2023-02-15T10:02:38;6.60;99.90
8820;DHT22;4446;50.876;4.736;2023-02-15T10:05:21;6.70;99.90
8820;DHT22;4446;50.876;4.736;2023-02-15T10:08:13;6.90;99.90
8820;DHT22;4446;50.876;4.736;2023-02-15T10:10:50;7.00;99.90
8820;DHT22;4446;50.876;4.736;2023-02-15T10:13:30;7.10;99.90
8820;DHT22;4446;50.876;4.736;2023-02-15T10:16:13;7.20;99.90
8820;DHT22;4446;50.876;4.736;2023-02-15T10:18:53;7.40;99.90
8820;DHT22;4446;50.876;4.736;2023-02-15T10:21:38;7.50;99.90
8820;DHT22;4446;50.876;4.736;2023-02-15T10:24:30;7.60;99.90
8820;DHT22;4446;50.876;4.736;2023-02-15T10:27:03;7.80;99.90
8820;DHT22;4446;50.876;4.736;2023-02-15T10:29:36;7.90;99.90
8820;DHT22;4446;50.876;4.736;2023-02-15T10:32:11;8.00;99.90
8820;DHT22;4446;50.876;4.736;2023-02-15T10:34:46;8.10;99.90
8820;DHT22;4446;50.876;4.736;2023-02-15T10:37:42;8.20;99.90
8820;DHT22;4446;50.876;4.736;2023-02-15T10:40:21;8.40;99.90
8820;DHT22;4446;50.876;4.736;2023-02-15T10:43:04;8.50;99.90
8820;DHT22;4446;50.876;4.736;2023-02-15T10:45:43;8.70;99.90
8820;DHT22;4446;50.876;4.736;2023-02-15T10:48:40;8.70;99.90
8820;DHT22;4446;50.876;4.736;2023-02-15T10:51:15;8.90;99.90
8820;DHT22;4446;50.876;4.736;2023-02-15T10:53:55;9.10;99.90
8820;DHT22;4446;50.876;4.736;2023-02-15T10:56:33;9.20;99.90
8820;DHT22;4446;50.876;4.736;2023-02-15T10:59:15;9.30;99.90
8820;DHT22;4446;50.876;4.736;2023-02-15T11:01:51;9.50;99.90
8820;DHT22;4446;50.876;4.736;2023-02-15T11:04:39;9.50;99.90
8820;DHT22;4446;50.876;4.736;2023-02-15T11:07:14;9.70;99.90
8820;DHT22;4446;50.876;4.736;2023-02-15T11:09:44;9.80;99.90
8820;DHT22;4446;50.876;4.736;2023-02-15T11:12:14;10.00;99.90
8820;DHT22;4446;50.876;4.736;2023-02-15T11:14:45;10.10;99.90
8820;DHT22;4446;50.876;4.736;2023-02-15T11:17:19;10.10;99.90
8820;DHT22;4446;50.876;4.736;2023-02-15T11:19:53;10.20;99.90
8820;DHT22;4446;50.876;4.736;2023-02-15T11:22:21;10.30;99.90
8820;DHT22;4446;50.876;4.736;2023-02-15T11:24:48;10.40;99.90
8820;DHT22;4446;50.876;4.736;2023-02-15T11:27:20;10.50;99.90
8820;DHT22;4446;50.876;4.736;2023-02-15T11:29:54;10.60;99.90
8820;DHT22;4446;50.876;4.736;2023-02-15T11:32:28;10.80;99.90
8820;DHT22;4446;50.876;4.736;2023-02-15T11:35:02;10.90;99.90
8820;DHT22;4446;50.876;4.736;2023-02-15T11:37:35;11.00;99.90
8820;DHT22;4446;50.876;4.736;2023-02-15T11:40:15;11.10;99.90
8820;DHT22;4446;50.876;4.736;2023-02-15T11:42:45;11.20;99.90
8820;DHT22;4446;50.876;4.736;2023-02-15T11:45:21;11.30;99.90
8820;DHT22;4446;50.876;4.736;2023-02-15T11:47:51;11.40;99.90
8820;DHT22;4446;50.876;4.736;2023-02-15T11:50:22;11.50;99.90
8820;DHT22;4446;50.876;4.736;2023-02-15T11:52:49;11.60;99.90
8820;DHT22;4446;50.876;4.736;2023-02-15T11:55:20;11.60;99.90
8820;DHT22;4446;50.876;4.736;2023-02-15T11:57:52;11.60;99.90
8820;DHT22;4446;50.876;4.736;2023-02-15T12:00:26;11.70;99.90
8820;DHT22;4446;50.876;4.736;2023-02-15T12:02:58;11.80;99.90
8820;DHT22;4446;50.876;4.736;2023-02-15T12:05:25;12.00;99.90
8820;DHT22;4446;50.876;4.736;2023-02-15T12:07:55;12.00;99.90
8820;DHT22;4446;50.876;4.736;2023-02-15T12:10:25;12.00;99.90
8820;DHT22;4446;50.876;4.736;2023-02-15T12:13:09;12.00;99.90
8820;DHT22;4446;50.876;4.736;2023-02-15T12:15:37;12.10;99.90
8820;DHT22;4446;50.876;4.736;2023-02-15T12:18:19;12.10;99.90
8820;DHT22;4446;50.876;4.736;2023-02-15T12:20:47;12.10;99.90
8820;DHT22;4446;50.876;4.736;2023-02-15T12:23:16;12.10;99.90
8820;DHT22;4446;50.876;4.736;2023-02-15T12:25:50;12.10;99.90
8820;DHT22;4446;50.876;4.736;2023-02-15T12:28:26;12.20;99.90
8820;DHT22;4446;50.876;4.736;2023-02-15T12:30:57;12.20;99.90
8820;DHT22;4446;50.876;4.736;2023-02-15T12:33:29;12.20;99.90
8820;DHT22;4446;50.876;4.736;2023-02-15T12:35:59;12.10;99.90
8820;DHT22;4446;50.876;4.736;2023-02-15T12:38:28;12.10;99.90
8820;DHT22;4446;50.876;4.736;2023-02-15T12:41:01;12.10;99.90
8820;DHT22;4446;50.876;4.736;2023-02-15T12:43:32;12.20;99.90
8820;DHT22;4446;50.876;4.736;2023-02-15T12:46:24;12.30;99.90
8820;DHT22;4446;50.876;4.736;2023-02-15T12:49:19;12.30;99.90
8820;DHT22;4446;50.876;4.736;2023-02-15T12:51:49;12.50;99.90
8820;DHT22;4446;50.876;4.736;2023-02-15T12:57:20;12.80;99.90
8820;DHT22;4446;50.876;4.736;2023-02-15T12:59:49;12.90;99.90
8820;DHT22;4446;50.876;4.736;2023-02-15T13:02:23;13.00;99.90
8820;DHT22;4446;50.876;4.736;2023-02-15T13:04:53;13.00;99.90
8820;DHT22;4446;50.876;4.736;2023-02-15T13:07:20;13.10;99.90
8820;DHT22;4446;50.876;4.736;2023-02-15T13:09:50;13.00;99.90
8820;DHT22;4446;50.876;4.736;2023-02-15T13:12:20;12.90;99.90
8820;DHT22;4446;50.876;4.736;2023-02-15T13:14:49;12.90;99.90
8820;DHT22;4446;50.876;4.736;2023-02-15T13:17:19;12.80;99.90
8820;DHT22;4446;50.876;4.736;2023-02-15T13:19:52;12.70;99.90
8820;DHT22;4446;50.876;4.736;2023-02-15T13:22:22;12.70;99.90
8820;DHT22;4446;50.876;4.736;2023-02-15T13:24:54;12.70;99.90
8820;DHT22;4446;50.876;4.736;2023-02-15T13:27:24;12.80;99.90
8820;DHT22;4446;50.876;4.736;2023-02-15T13:29:55;12.80;99.90
8820;DHT22;4446;50.876;4.736;2023-02-15T13:32:28;12.90;99.90
8820;DHT22;4446;50.876;4.736;2023-02-15T13:35:00;12.90;99.90
8820;DHT22;4446;50.876;4.736;2023-02-15T13:37:52;12.90;99.90
8820;DHT22;4446;50.876;4.736;2023-02-15T13:40:25;12.90;99.90
8820;DHT22;4446;50.876;4.736;2023-02-15T13:42:55;12.90;99.90
8820;DHT22;4446;50.876;4.736;2023-02-15T13:45:33;13.00;99.90
8820;DHT22;4446;50.876;4.736;2023-02-15T13:48:10;13.00;99.90
8820;DHT22;4446;50.876;4.736;2023-02-15T13:50:58;13.00;99.90
8820;DHT22;4446;50.876;4.736;2023-02-15T13:53:46;13.00;99.90
8820;DHT22;4446;50.876;4.736;2023-02-15T13:56:20;13.10;99.90
8820;DHT22;4446;50.876;4.736;2023-02-15T13:59:15;13.10;99.90
8820;DHT22;4446;50.876;4.736;2023-02-15T14:01:52;13.20;99.90
8820;DHT22;4446;50.876;4.736;2023-02-15T14:05:05;13.30;99.90
8820;DHT22;4446;50.876;4.736;2023-02-15T14:07:54;13.40;99.90
8820;DHT22;4446;50.876;4.736;2023-02-15T14:10:48;13.50;99.90
8820;DHT22;4446;50.876;4.736;2023-02-15T14:13:39;13.50;99.90
8820;DHT22;4446;50.876;4.736;2023-02-15T14:16:15;13.40;99.90
8820;DHT22;4446;50.876;4.736;2023-02-15T14:18:47;13.30;99.90
8820;DHT22;4446;50.876;4.736;2023-02-15T14:21:18;13.40;99.90
8820;DHT22;4446;50.876;4.736;2023-02-15T14:24:04;13.50;99.90
8820;DHT22;4446;50.876;4.736;2023-02-15T14:26:40;13.50;99.90
8820;DHT22;4446;50.876;4.736;2023-02-15T14:29:20;13.40;99.90
8820;DHT22;4446;50.876;4.736;2023-02-15T14:31:53;13.40;99.90
8820;DHT22;4446;50.876;4.736;2023-02-15T14:34:24;13.40;99.90
8820;DHT22;4446;50.876;4.736;2023-02-15T14:36:55;13.40;99.90
8820;DHT22;4446;50.876;4.736;2023-02-15T14:39:31;13.40;99.90
8820;DHT22;4446;50.876;4.736;2023-02-15T14:42:25;13.40;99.90
8820;DHT22;4446;50.876;4.736;2023-02-15T14:45:00;13.40;99.90
8820;DHT22;4446;50.876;4.736;2023-02-15T14:47:31;13.30;99.90
8820;DHT22;4446;50.876;4.736;2023-02-15T14:50:36;13.30;99.90
8820;DHT22;4446;50.876;4.736;2023-02-15T14:53:15;13.10;99.90
8820;DHT22;4446;50.876;4.736;2023-02-15T14:55:44;13.10;99.90
8820;DHT22;4446;50.876;4.736;2023-02-15T14:58:12;13.10;99.90
8820;DHT22;4446;50.876;4.736;2023-02-15T15:00:40;13.10;99.90
8820;DHT22;4446;50.876;4.736;2023-02-15T15:03:19;13.00;99.90
8820;DHT22;4446;50.876;4.736;2023-02-15T15:05:51;13.10;99.90
8820;DHT22;4446;50.876;4.736;2023-02-15T15:08:27;13.00;99.90
8820;DHT22;4446;50.876;4.736;2023-02-15T15:10:56;13.00;99.90
8820;DHT22;4446;50.876;4.736;2023-02-15T15:13:53;13.00;99.90
8820;DHT22;4446;50.876;4.736;2023-02-15T15:16:30;13.00;99.90
8820;DHT22;4446;50.876;4.736;2023-02-15T15:18:58;13.00;99.90
8820;DHT22;4446;50.876;4.736;2023-02-15T15:21:54;12.90;99.90
8820;DHT22;4446;50.876;4.736;2023-02-15T15:24:48;12.80;99.90
8820;DHT22;4446;50.876;4.736;2023-02-15T15:27:44;12.70;99.90
8820;DHT22;4446;50.876;4.736;2023-02-15T15:30:49;12.70;99.90
8820;DHT22;4446;50.876;4.736;2023-02-15T15:33:46;12.60;99.90
8820;DHT22;4446;50.876;4.736;2023-02-15T15:39:47;12.50;99.90
8820;DHT22;4446;50.876;4.736;2023-02-15T15:42:32;12.50;99.90
8820;DHT22;4446;50.876;4.736;2023-02-15T15:45:42;12.40;99.90
8820;DHT22;4446;50.876;4.736;2023-02-15T15:48:29;12.30;99.90
8820;DHT22;4446;50.876;4.736;2023-02-15T15:51:00;12.30;99.90
8820;DHT22;4446;50.876;4.736;2023-02-15T15:53:31;12.20;99.90
8820;DHT22;4446;50.876;4.736;2023-02-15T15:56:02;12.20;99.90
8820;DHT22;4446;50.876;4.736;2023-02-15T15:58:30;12.20;99.90
8820;DHT22;4446;50.876;4.736;2023-02-15T16:01:03;12.20;99.90
8820;DHT22;4446;50.876;4.736;2023-02-15T16:03:31;12.10;99.90
8820;DHT22;4446;50.876;4.736;2023-02-15T16:05:58;12.10;99.90
8820;DHT22;4446;50.876;4.736;2023-02-15T16:08:27;12.00;99.90
8820;DHT22;4446;50.876;4.736;2023-02-15T16:10:55;11.90;99.90
8820;DHT22;4446;50.876;4.736;2023-02-15T16:13:22;11.80;99.90
8820;DHT22;4446;50.876;4.736;2023-02-15T16:15:52;11.70;99.90
8820;DHT22;4446;50.876;4.736;2023-02-15T16:18:23;11.70;99.90
8820;DHT22;4446;50.876;4.736;2023-02-15T16:20:53;11.60;99.90
8820;DHT22;4446;50.876;4.736;2023-02-15T16:23:50;11.50;99.90
8820;DHT22;4446;50.876;4.736;2023-02-15T16:26:35;11.30;99.90
8820;DHT22;4446;50.876;4.736;2023-02-15T16:29:14;11.10;99.90
8820;DHT22;4446;50.876;4.736;2023-02-15T16:31:41;11.00;99.90
8820;DHT22;4446;50.876;4.736;2023-02-15T16:34:16;10.90;99.90
8820;DHT22;4446;50.876;4.736;2023-02-15T16:36:44;10.70;99.90
8820;DHT22;4446;50.876;4.736;2023-02-15T16:39:19;10.50;99.90
8820;DHT22;4446;50.876;4.736;2023-02-15T16:41:48;10.40;99.90
8820;DHT22;4446;50.876;4.736;2023-02-15T16:44:18;10.20;99.90
8820;DHT22;4446;50.876;4.736;2023-02-15T16:46:48;10.00;99.90
8820;DHT22;4446;50.876;4.736;2023-02-15T16:49:19;9.80;99.90
8820;DHT22;4446;50.876;4.736;2023-02-15T16:51:55;9.70;99.90